sensor_id;sensor_type;location;lat;lon;timestamp;temperature;humidity
14850;DHT22;7517;48.400;11.770;2023-01-19T00:01:41;6.20;65.00
14850;DHT22;7517;48.400;11.770;2023-01-19T00:04:12;6.20;65.20
14850;DHT22;7517;48.400;11.770;2023-01-19T00:06:39;6.20;65.10
14850;DHT22;7517;48.400;11.770;2023-01-19T00:09:20;6.20;65.00
14850;DHT22;7517;48.400;11.770;2023-01-19T00:11:47;6.20;65.00
14850;DHT22;7517;48.400;11.770;2023-01-19T00:14:16;6.20;65.00
14850;DHT22;7517;48.400;11.770;2023-01-19T00:16:45;6.30;65.20
14850;DHT22;7517;48.400;11.770;2023-01-19T00:19:12;6.20;65.10
14850;DHT22;7517;48.400;11.770;2023-01-19T00:21:49;6.20;65.00
14850;DHT22;7517;48.400;11.770;2023-01-19T00:24:19;6.30;65.20
14850;DHT22;7517;48.400;11.770;2023-01-19T00:26:46;6.20;65.00
14850;DHT22;7517;48.400;11.770;2023-01-19T00:29:14;6.20;65.20
14850;DHT22;7517;48.400;11.770;2023-01-19T00:31:45;6.30;65.40
14850;DHT22;7517;48.400;11.770;2023-01-19T00:34:12;6.30;65.30
14850;DHT22;7517;48.400;11.770;2023-01-19T00:36:40;6.30;65.20
14850;DHT22;7517;48.400;11.770;2023-01-19T00:39:07;6.30;66.00
14850;DHT22;7517;48.400;11.770;2023-01-19T00:41:35;6.30;65.10
14850;DHT22;7517;48.400;11.770;2023-01-19T00:44:19;6.30;65.00
14850;DHT22;7517;48.400;11.770;2023-01-19T00:46:48;6.30;65.00
14850;DHT22;7517;48.400;11.770;2023-01-19T00:49:15;6.30;65.20
14850;DHT22;7517;48.400;11.770;2023-01-19T00:51:43;6.40;65.40
14850;DHT22;7517;48.400;11.770;2023-01-19T00:54:10;6.30;65.30
14850;DHT22;7517;48.400;11.770;2023-01-19T00:56:37;6.30;65.00
14850;DHT22;7517;48.400;11.770;2023-01-19T00:59:04;6.30;65.00
14850;DHT22;7517;48.400;11.770;2023-01-19T01:01:32;6.30;65.00
14850;DHT22;7517;48.400;11.770;2023-01-19T01:04:00;6.30;65.00
14850;DHT22;7517;48.400;11.770;2023-01-19T01:06:29;6.40;64.80
14850;DHT22;7517;48.400;11.770;2023-01-19T01:08:56;6.40;64.80
14850;DHT22;7517;48.400;11.770;2023-01-19T01:11:23;6.40;64.90
14850;DHT22;7517;48.400;11.770;2023-01-19T01:13:52;6.40;65.00
14850;DHT22;7517;48.400;11.770;2023-01-19T01:16:19;6.40;65.20
14850;DHT22;7517;48.400;11.770;2023-01-19T01:18:47;6.40;64.80
14850;DHT22;7517;48.400;11.770;2023-01-19T01:21:16;6.30;64.60
14850;DHT22;7517;48.400;11.770;2023-01-19T01:23:43;6.30;64.60
14850;DHT22;7517;48.400;11.770;2023-01-19T01:26:10;6.40;64.70
14850;DHT22;7517;48.400;11.770;2023-01-19T01:28:37;6.30;64.60
14850;DHT22;7517;48.400;11.770;2023-01-19T01:31:04;6.40;64.50
14850;DHT22;7517;48.400;11.770;2023-01-19T01:33:32;6.30;64.40
14850;DHT22;7517;48.400;11.770;2023-01-19T01:35:59;6.30;64.50
14850;DHT22;7517;48.400;11.770;2023-01-19T01:38:28;6.30;64.50
14850;DHT22;7517;48.400;11.770;2023-01-19T01:40:55;6.30;64.50
14850;DHT22;7517;48.400;11.770;2023-01-19T01:43:41;6.30;64.40
14850;DHT22;7517;48.400;11.770;2023-01-19T01:46:10;6.30;64.50
14850;DHT22;7517;48.400;11.770;2023-01-19T01:48:41;6.20;64.20
14850;DHT22;7517;48.400;11.770;2023-01-19T01:51:18;6.20;64.40
14850;DHT22;7517;48.400;11.770;2023-01-19T01:53:58;6.20;64.40
14850;DHT22;7517;48.400;11.770;2023-01-19T01:56:35;6.20;64.10
14850;DHT22;7517;48.400;11.770;2023-01-19T01:59:06;6.20;64.00
14850;DHT22;7517;48.400;11.770;2023-01-19T02:01:37;6.20;63.80
14850;DHT22;7517;48.400;11.770;2023-01-19T02:04:22;6.20;63.70
14850;DHT22;7517;48.400;11.770;2023-01-19T02:06:50;6.20;63.90
14850;DHT22;7517;48.400;11.770;2023-01-19T02:09:36;6.10;63.90
14850;DHT22;7517;48.400;11.770;2023-01-19T02:12:21;6.10;64.00
14850;DHT22;7517;48.400;11.770;2023-01-19T02:15:14;6.10;63.90
14850;DHT22;7517;48.400;11.770;2023-01-19T02:17:45;6.20;64.10
14850;DHT22;7517;48.400;11.770;2023-01-19T02:20:14;6.10;64.30
14850;DHT22;7517;48.400;11.770;2023-01-19T02:22:46;6.00;64.40
14850;DHT22;7517;48.400;11.770;2023-01-19T02:25:17;6.10;64.40
14850;DHT22;7517;48.400;11.770;2023-01-19T02:27:51;6.00;64.40
14850;DHT22;7517;48.400;11.770;2023-01-19T02:30:19;6.00;64.40
14850;DHT22;7517;48.400;11.770;2023-01-19T02:32:50;6.00;64.70
14850;DHT22;7517;48.400;11.770;2023-01-19T02:35:18;6.00;64.70
14850;DHT22;7517;48.400;11.770;2023-01-19T02:37:48;5.90;64.60
14850;DHT22;7517;48.400;11.770;2023-01-19T02:40:18;5.90;64.70
14850;DHT22;7517;48.400;11.770;2023-01-19T02:42:49;5.90;64.90
14850;DHT22;7517;48.400;11.770;2023-01-19T02:45:20;5.90;65.00
14850;DHT22;7517;48.400;11.770;2023-01-19T02:47:49;5.90;64.80
14850;DHT22;7517;48.400;11.770;2023-01-19T02:50:40;5.90;64.80
14850;DHT22;7517;48.400;11.770;2023-01-19T02:56:44;5.90;65.20
14850;DHT22;7517;48.400;11.770;2023-01-19T02:59:27;5.90;65.20
14850;DHT22;7517;48.400;11.770;2023-01-19T03:02:14;5.90;65.30
14850;DHT22;7517;48.400;11.770;2023-01-19T03:05:04;5.90;65.60
14850;DHT22;7517;48.400;11.770;2023-01-19T03:07:50;5.90;65.60
14850;DHT22;7517;48.400;11.770;2023-01-19T03:10:30;5.90;65.50
14850;DHT22;7517;48.400;11.770;2023-01-19T03:13:11;5.90;65.60
14850;DHT22;7517;48.400;11.770;2023-01-19T03:15:45;5.90;65.60
14850;DHT22;7517;48.400;11.770;2023-01-19T03:18:20;5.90;65.60
14850;DHT22;7517;48.400;11.770;2023-01-19T03:20:56;5.80;65.70
14850;DHT22;7517;48.400;11.770;2023-01-19T03:23:30;5.90;65.80
14850;DHT22;7517;48.400;11.770;2023-01-19T03:26:00;5.90;65.70
14850;DHT22;7517;48.400;11.770;2023-01-19T03:28:33;5.90;65.70
14850;DHT22;7517;48.400;11.770;2023-01-19T03:31:09;5.90;65.80
14850;DHT22;7517;48.400;11.770;2023-01-19T03:33:44;5.90;65.80
14850;DHT22;7517;48.400;11.770;2023-01-19T03:36:20;5.90;65.80
14850;DHT22;7517;48.400;11.770;2023-01-19T03:38:56;5.90;65.80
14850;DHT22;7517;48.400;11.770;2023-01-19T03:41:29;5.90;66.00
14850;DHT22;7517;48.400;11.770;2023-01-19T03:44:00;5.90;65.90
14850;DHT22;7517;48.400;11.770;2023-01-19T03:46:31;5.90;65.90
14850;DHT22;7517;48.400;11.770;2023-01-19T03:49:01;5.90;65.90
14850;DHT22;7517;48.400;11.770;2023-01-19T03:51:34;5.90;65.80
14850;DHT22;7517;48.400;11.770;2023-01-19T03:54:16;5.90;65.90
14850;DHT22;7517;48.400;11.770;2023-01-19T03:57:04;5.90;66.20
14850;DHT22;7517;48.400;11.770;2023-01-19T03:59:36;5.90;66.10
14850;DHT22;7517;48.400;11.770;2023-01-19T04:02:04;5.80;65.90
14850;DHT22;7517;48.400;11.770;2023-01-19T04:04:31;5.80;65.80
14850;DHT22;7517;48.400;11.770;2023-01-19T04:07:10;5.80;65.80
14850;DHT22;7517;48.400;11.770;2023-01-19T04:09:43;5.80;66.00
14850;DHT22;7517;48.400;11.770;2023-01-19T04:12:10;5.70;65.80
14850;DHT22;7517;48.400;11.770;2023-01-19T04:14:39;5.80;65.90
14850;DHT22;7517;48.400;11.770;2023-01-19T04:17:06;5.70;65.90
14850;DHT22;7517;48.400;11.770;2023-01-19T04:19:34;5.70;65.90
14850;DHT22;7517;48.400;11.770;2023-01-19T04:22:04;5.70;66.00
14850;DHT22;7517;48.400;11.770;2023-01-19T04:24:35;5.70;66.00
14850;DHT22;7517;48.400;11.770;2023-01-19T04:27:11;5.60;65.80
14850;DHT22;7517;48.400;11.770;2023-01-19T04:29:42;5.70;66.00
14850;DHT22;7517;48.400;11.770;2023-01-19T04:32:15;5.60;66.10
14850;DHT22;7517;48.400;11.770;2023-01-19T04:34:43;5.60;66.00
14850;DHT22;7517;48.400;11.770;2023-01-19T04:37:10;5.60;65.90
14850;DHT22;7517;48.400;11.770;2023-01-19T04:39:37;5.60;66.60
14850;DHT22;7517;48.400;11.770;2023-01-19T04:42:07;5.50;65.90
14850;DHT22;7517;48.400;11.770;2023-01-19T04:44:37;5.50;65.90
14850;DHT22;7517;48.400;11.770;2023-01-19T04:47:06;5.50;66.00
14850;DHT22;7517;48.400;11.770;2023-01-19T04:49:37;5.50;66.10
14850;DHT22;7517;48.400;11.770;2023-01-19T04:52:08;5.40;65.90
14850;DHT22;7517;48.400;11.770;2023-01-19T04:54:47;5.40;65.80
14850;DHT22;7517;48.400;11.770;2023-01-19T04:57:15;5.40;65.90
14850;DHT22;7517;48.400;11.770;2023-01-19T04:59:54;5.30;65.90
14850;DHT22;7517;48.400;11.770;2023-01-19T05:02:29;5.30;65.80
14850;DHT22;7517;48.400;11.770;2023-01-19T05:05:10;5.30;65.80
14850;DHT22;7517;48.400;11.770;2023-01-19T05:07:42;5.30;65.90
14850;DHT22;7517;48.400;11.770;2023-01-19T05:10:15;5.20;65.70
14850;DHT22;7517;48.400;11.770;2023-01-19T05:12:55;5.20;66.40
14850;DHT22;7517;48.400;11.770;2023-01-19T05:15:25;5.10;65.70
14850;DHT22;7517;48.400;11.770;2023-01-19T05:17:59;5.10;65.80
14850;DHT22;7517;48.400;11.770;2023-01-19T05:20:26;5.10;65.90
14850;DHT22;7517;48.400;11.770;2023-01-19T05:22:53;5.00;65.90
14850;DHT22;7517;48.400;11.770;2023-01-19T05:25:22;5.00;66.00
14850;DHT22;7517;48.400;11.770;2023-01-19T05:27:49;5.00;66.10
14850;DHT22;7517;48.400;11.770;2023-01-19T05:30:20;5.00;66.20
14850;DHT22;7517;48.400;11.770;2023-01-19T05:35:40;4.90;66.10
14850;DHT22;7517;48.400;11.770;2023-01-19T05:38:14;4.80;66.00
14850;DHT22;7517;48.400;11.770;2023-01-19T05:40:44;5.00;66.10
14850;DHT22;7517;48.400;11.770;2023-01-19T05:43:17;4.90;65.90
14850;DHT22;7517;48.400;11.770;2023-01-19T05:45:44;4.90;65.90
14850;DHT22;7517;48.400;11.770;2023-01-19T05:48:14;4.80;65.80
14850;DHT22;7517;48.400;11.770;2023-01-19T05:50:41;4.80;66.10
14850;DHT22;7517;48.400;11.770;2023-01-19T05:53:11;4.80;66.10
14850;DHT22;7517;48.400;11.770;2023-01-19T05:55:44;4.80;66.10
14850;DHT22;7517;48.400;11.770;2023-01-19T05:58:23;4.80;66.00
14850;DHT22;7517;48.400;11.770;2023-01-19T06:01:09;4.70;66.00
14850;DHT22;7517;48.400;11.770;2023-01-19T06:04:11;4.70;66.20
14850;DHT22;7517;48.400;11.770;2023-01-19T06:06:57;4.70;66.30
14850;DHT22;7517;48.400;11.770;2023-01-19T06:09:56;4.70;66.50
14850;DHT22;7517;48.400;11.770;2023-01-19T06:12:30;4.70;66.50
14850;DHT22;7517;48.400;11.770;2023-01-19T06:15:09;4.70;66.50
14850;DHT22;7517;48.400;11.770;2023-01-19T06:17:37;4.70;66.60
14850;DHT22;7517;48.400;11.770;2023-01-19T06:20:11;4.70;66.40
14850;DHT22;7517;48.400;11.770;2023-01-19T06:22:39;4.70;66.40
14850;DHT22;7517;48.400;11.770;2023-01-19T06:25:09;4.70;66.40
14850;DHT22;7517;48.400;11.770;2023-01-19T06:27:42;4.70;66.50
14850;DHT22;7517;48.400;11.770;2023-01-19T06:30:13;4.70;66.60
14850;DHT22;7517;48.400;11.770;2023-01-19T06:32:46;4.70;66.60
14850;DHT22;7517;48.400;11.770;2023-01-19T06:35:15;4.80;66.60
14850;DHT22;7517;48.400;11.770;2023-01-19T06:37:43;4.80;66.70
14850;DHT22;7517;48.400;11.770;2023-01-19T06:40:14;4.80;66.60
14850;DHT22;7517;48.400;11.770;2023-01-19T06:42:47;4.80;66.60
14850;DHT22;7517;48.400;11.770;2023-01-19T06:45:14;4.80;66.60
14850;DHT22;7517;48.400;11.770;2023-01-19T06:47:46;4.80;66.50
14850;DHT22;7517;48.400;11.770;2023-01-19T06:50:14;4.90;66.50
14850;DHT22;7517;48.400;11.770;2023-01-19T06:52:42;4.90;66.40
14850;DHT22;7517;48.400;11.770;2023-01-19T06:55:09;4.90;66.20
14850;DHT22;7517;48.400;11.770;2023-01-19T06:57:38;5.00;66.30
14850;DHT22;7517;48.400;11.770;2023-01-19T07:00:08;5.00;66.30
14850;DHT22;7517;48.400;11.770;2023-01-19T07:02:36;5.00;66.30
14850;DHT22;7517;48.400;11.770;2023-01-19T07:08:16;5.10;66.20
14850;DHT22;7517;48.400;11.770;2023-01-19T07:10:43;5.20;66.30
14850;DHT22;7517;48.400;11.770;2023-01-19T07:13:11;5.20;66.30
14850;DHT22;7517;48.400;11.770;2023-01-19T07:15:46;5.20;66.30
14850;DHT22;7517;48.400;11.770;2023-01-19T07:18:31;5.20;66.10
14850;DHT22;7517;48.400;11.770;2023-01-19T07:21:03;5.20;65.80
14850;DHT22;7517;48.400;11.770;2023-01-19T07:23:39;5.30;65.50
14850;DHT22;7517;48.400;11.770;2023-01-19T07:26:17;5.30;65.40
14850;DHT22;7517;48.400;11.770;2023-01-19T07:28:59;5.30;65.40
14850;DHT22;7517;48.400;11.770;2023-01-19T07:31:36;5.30;65.40
14850;DHT22;7517;48.400;11.770;2023-01-19T07:34:20;5.30;65.40
14850;DHT22;7517;48.400;11.770;2023-01-19T07:36:50;5.30;65.30
14850;DHT22;7517;48.400;11.770;2023-01-19T07:39:26;5.20;65.20
14850;DHT22;7517;48.400;11.770;2023-01-19T07:41:55;5.20;65.20
14850;DHT22;7517;48.400;11.770;2023-01-19T07:44:31;5.20;65.20
14850;DHT22;7517;48.400;11.770;2023-01-19T07:47:06;5.20;65.20
14850;DHT22;7517;48.400;11.770;2023-01-19T07:49:38;5.20;65.20
14850;DHT22;7517;48.400;11.770;2023-01-19T07:52:10;5.20;65.10
14850;DHT22;7517;48.400;11.770;2023-01-19T07:54:37;5.30;65.20
14850;DHT22;7517;48.400;11.770;2023-01-19T07:57:11;5.20;65.80
14850;DHT22;7517;48.400;11.770;2023-01-19T07:59:39;5.30;65.10
14850;DHT22;7517;48.400;11.770;2023-01-19T08:02:10;5.30;65.10
14850;DHT22;7517;48.400;11.770;2023-01-19T08:04:38;5.30;65.10
14850;DHT22;7517;48.400;11.770;2023-01-19T08:07:05;5.30;65.00
14850;DHT22;7517;48.400;11.770;2023-01-19T08:09:35;5.30;64.90
14850;DHT22;7517;48.400;11.770;2023-01-19T08:12:03;5.30;64.70
14850;DHT22;7517;48.400;11.770;2023-01-19T08:14:30;5.20;64.50
14850;DHT22;7517;48.400;11.770;2023-01-19T08:16:59;5.20;64.30
14850;DHT22;7517;48.400;11.770;2023-01-19T08:19:27;5.20;64.30
14850;DHT22;7517;48.400;11.770;2023-01-19T08:21:55;5.20;64.30
14850;DHT22;7517;48.400;11.770;2023-01-19T08:24:23;5.20;64.30
14850;DHT22;7517;48.400;11.770;2023-01-19T08:26:59;5.20;64.30
14850;DHT22;7517;48.400;11.770;2023-01-19T08:29:27;5.20;64.30
14850;DHT22;7517;48.400;11.770;2023-01-19T08:31:58;5.20;64.20
14850;DHT22;7517;48.400;11.770;2023-01-19T08:34:27;5.20;64.20
14850;DHT22;7517;48.400;11.770;2023-01-19T08:36:57;5.20;64.10
14850;DHT22;7517;48.400;11.770;2023-01-19T08:39:24;5.20;64.10
14850;DHT22;7517;48.400;11.770;2023-01-19T08:41:52;5.10;64.10
14850;DHT22;7517;48.400;11.770;2023-01-19T08:44:21;5.10;64.20
14850;DHT22;7517;48.400;11.770;2023-01-19T08:46:48;5.10;64.30
14850;DHT22;7517;48.400;11.770;2023-01-19T08:49:15;5.10;64.60
14850;DHT22;7517;48.400;11.770;2023-01-19T08:51:43;5.20;64.60
14850;DHT22;7517;48.400;11.770;2023-01-19T08:54:12;5.20;64.60
14850;DHT22;7517;48.400;11.770;2023-01-19T08:56:41;5.20;64.30
14850;DHT22;7517;48.400;11.770;2023-01-19T08:59:08;5.20;64.20
14850;DHT22;7517;48.400;11.770;2023-01-19T09:01:37;5.20;64.20
14850;DHT22;7517;48.400;11.770;2023-01-19T09:04:13;5.30;64.30
14850;DHT22;7517;48.400;11.770;2023-01-19T09:06:40;5.30;64.10
14850;DHT22;7517;48.400;11.770;2023-01-19T09:09:07;5.30;63.90
14850;DHT22;7517;48.400;11.770;2023-01-19T09:11:35;5.20;63.50
14850;DHT22;7517;48.400;11.770;2023-01-19T09:14:02;5.30;63.70
14850;DHT22;7517;48.400;11.770;2023-01-19T09:16:32;5.30;63.90
14850;DHT22;7517;48.400;11.770;2023-01-19T09:19:01;5.30;63.90
14850;DHT22;7517;48.400;11.770;2023-01-19T09:21:31;5.40;63.90
14850;DHT22;7517;48.400;11.770;2023-01-19T09:24:12;5.30;63.80
14850;DHT22;7517;48.400;11.770;2023-01-19T09:26:39;5.30;63.90
14850;DHT22;7517;48.400;11.770;2023-01-19T09:29:06;5.40;64.20
14850;DHT22;7517;48.400;11.770;2023-01-19T09:31:36;5.40;64.20
14850;DHT22;7517;48.400;11.770;2023-01-19T09:34:06;5.50;64.20
14850;DHT22;7517;48.400;11.770;2023-01-19T09:36:35;5.50;63.90
14850;DHT22;7517;48.400;11.770;2023-01-19T09:39:07;5.60;63.90
14850;DHT22;7517;48.400;11.770;2023-01-19T09:41:38;5.60;63.70
14850;DHT22;7517;48.400;11.770;2023-01-19T09:44:17;5.60;63.60
14850;DHT22;7517;48.400;11.770;2023-01-19T09:46:55;5.70;63.40
14850;DHT22;7517;48.400;11.770;2023-01-19T09:49:31;5.70;63.50
14850;DHT22;7517;48.400;11.770;2023-01-19T09:52:09;5.70;63.30
14850;DHT22;7517;48.400;11.770;2023-01-19T09:54:42;5.80;63.20
14850;DHT22;7517;48.400;11.770;2023-01-19T09:57:15;5.80;63.20
14850;DHT22;7517;48.400;11.770;2023-01-19T09:59:42;5.80;63.30
14850;DHT22;7517;48.400;11.770;2023-01-19T10:02:25;5.90;63.30
14850;DHT22;7517;48.400;11.770;2023-01-19T10:05:01;5.90;63.10
14850;DHT22;7517;48.400;11.770;2023-01-19T10:07:36;6.00;63.20
14850;DHT22;7517;48.400;11.770;2023-01-19T10:10:19;6.00;63.10
14850;DHT22;7517;48.400;11.770;2023-01-19T10:13:01;6.10;63.00
14850;DHT22;7517;48.400;11.770;2023-01-19T10:15:45;6.10;62.80
14850;DHT22;7517;48.400;11.770;2023-01-19T10:18:21;6.20;62.80
14850;DHT22;7517;48.400;11.770;2023-01-19T10:21:02;6.20;62.50
14850;DHT22;7517;48.400;11.770;2023-01-19T10:23:36;6.20;62.20
14850;DHT22;7517;48.400;11.770;2023-01-19T10:26:11;6.20;62.20
14850;DHT22;7517;48.400;11.770;2023-01-19T10:28:41;6.20;62.30
14850;DHT22;7517;48.400;11.770;2023-01-19T10:31:13;6.30;62.40
14850;DHT22;7517;48.400;11.770;2023-01-19T10:33:46;6.30;62.20
14850;DHT22;7517;48.400;11.770;2023-01-19T10:36:21;6.30;62.40
14850;DHT22;7517;48.400;11.770;2023-01-19T10:38:55;6.40;62.30
14850;DHT22;7517;48.400;11.770;2023-01-19T10:41:27;6.40;62.20
14850;DHT22;7517;48.400;11.770;2023-01-19T10:44:04;6.50;62.20
14850;DHT22;7517;48.400;11.770;2023-01-19T10:46:37;6.60;61.80
14850;DHT22;7517;48.400;11.770;2023-01-19T10:49:26;6.60;62.20
14850;DHT22;7517;48.400;11.770;2023-01-19T10:52:00;6.70;60.80
14850;DHT22;7517;48.400;11.770;2023-01-19T10:54:30;6.70;60.60
14850;DHT22;7517;48.400;11.770;2023-01-19T10:57:03;6.70;60.70
14850;DHT22;7517;48.400;11.770;2023-01-19T10:59:35;6.70;61.00
14850;DHT22;7517;48.400;11.770;2023-01-19T11:02:26;6.70;61.20
14850;DHT22;7517;48.400;11.770;2023-01-19T11:04:56;6.80;61.40
14850;DHT22;7517;48.400;11.770;2023-01-19T11:07:30;6.80;61.60
14850;DHT22;7517;48.400;11.770;2023-01-19T11:10:20;6.90;61.60
14850;DHT22;7517;48.400;11.770;2023-01-19T11:12:59;6.90;61.10
14850;DHT22;7517;48.400;11.770;2023-01-19T11:15:33;7.00;61.00
14850;DHT22;7517;48.400;11.770;2023-01-19T11:18:03;7.00;60.90
14850;DHT22;7517;48.400;11.770;2023-01-19T11:20:45;7.00;61.00
14850;DHT22;7517;48.400;11.770;2023-01-19T11:23:24;7.10;60.90
14850;DHT22;7517;48.400;11.770;2023-01-19T11:25:56;7.00;60.80
14850;DHT22;7517;48.400;11.770;2023-01-19T11:28:32;7.10;60.80
14850;DHT22;7517;48.400;11.770;2023-01-19T11:31:16;7.10;60.60
14850;DHT22;7517;48.400;11.770;2023-01-19T11:33:48;7.20;60.00
14850;DHT22;7517;48.400;11.770;2023-01-19T11:36:17;7.20;60.00
14850;DHT22;7517;48.400;11.770;2023-01-19T11:38:49;7.20;59.80
14850;DHT22;7517;48.400;11.770;2023-01-19T11:41:19;7.20;59.80
14850;DHT22;7517;48.400;11.770;2023-01-19T11:43:50;7.20;60.40
14850;DHT22;7517;48.400;11.770;2023-01-19T11:46:21;7.20;59.60
14850;DHT22;7517;48.400;11.770;2023-01-19T11:48:52;7.20;59.60
14850;DHT22;7517;48.400;11.770;2023-01-19T11:51:29;7.20;59.70
14850;DHT22;7517;48.400;11.770;2023-01-19T11:54:14;7.30;59.90
14850;DHT22;7517;48.400;11.770;2023-01-19T11:56:49;7.30;59.80
14850;DHT22;7517;48.400;11.770;2023-01-19T11:59:19;7.30;59.80
14850;DHT22;7517;48.400;11.770;2023-01-19T12:01:52;7.30;59.70
14850;DHT22;7517;48.400;11.770;2023-01-19T12:04:26;7.30;59.70
14850;DHT22;7517;48.400;11.770;2023-01-19T12:06:58;7.30;59.60
14850;DHT22;7517;48.400;11.770;2023-01-19T12:09:35;7.30;59.60
14850;DHT22;7517;48.400;11.770;2023-01-19T12:12:10;7.30;59.40
14850;DHT22;7517;48.400;11.770;2023-01-19T12:14:51;7.20;59.20
14850;DHT22;7517;48.400;11.770;2023-01-19T12:17:25;7.30;59.20
14850;DHT22;7517;48.400;11.770;2023-01-19T12:20:00;7.30;59.20
14850;DHT22;7517;48.400;11.770;2023-01-19T12:22:38;7.30;59.10
14850;DHT22;7517;48.400;11.770;2023-01-19T12:25:18;7.30;59.20
14850;DHT22;7517;48.400;11.770;2023-01-19T12:27:49;7.30;59.20
14850;DHT22;7517;48.400;11.770;2023-01-19T12:30:20;7.30;59.10
14850;DHT22;7517;48.400;11.770;2023-01-19T12:32:49;7.30;59.10
14850;DHT22;7517;48.400;11.770;2023-01-19T12:35:54;7.40;59.20
14850;DHT22;7517;48.400;11.770;2023-01-19T12:38:43;7.40;58.60
14850;DHT22;7517;48.400;11.770;2023-01-19T12:41:27;7.40;58.70
14850;DHT22;7517;48.400;11.770;2023-01-19T12:44:27;7.40;58.60
14850;DHT22;7517;48.400;11.770;2023-01-19T12:46:59;7.40;58.40
14850;DHT22;7517;48.400;11.770;2023-01-19T12:49:34;7.40;58.60
14850;DHT22;7517;48.400;11.770;2023-01-19T12:52:18;7.40;58.50
14850;DHT22;7517;48.400;11.770;2023-01-19T12:55:14;7.40;58.20
14850;DHT22;7517;48.400;11.770;2023-01-19T12:57:55;7.40;58.30
14850;DHT22;7517;48.400;11.770;2023-01-19T13:00:35;7.40;58.40
14850;DHT22;7517;48.400;11.770;2023-01-19T13:06:11;7.40;58.30
14850;DHT22;7517;48.400;11.770;2023-01-19T13:08:59;7.40;58.40
14850;DHT22;7517;48.400;11.770;2023-01-19T13:11:27;7.50;58.20
14850;DHT22;7517;48.400;11.770;2023-01-19T13:17:25;7.40;57.80
14850;DHT22;7517;48.400;11.770;2023-01-19T13:20:25;7.40;58.00
14850;DHT22;7517;48.400;11.770;2023-01-19T13:23:17;7.40;58.10
14850;DHT22;7517;48.400;11.770;2023-01-19T13:25:53;7.40;58.10
14850;DHT22;7517;48.400;11.770;2023-01-19T13:28:35;7.40;58.20
14850;DHT22;7517;48.400;11.770;2023-01-19T13:31:11;7.40;58.20
14850;DHT22;7517;48.400;11.770;2023-01-19T13:33:45;7.50;58.30
14850;DHT22;7517;48.400;11.770;2023-01-19T13:36:22;7.50;58.40
14850;DHT22;7517;48.400;11.770;2023-01-19T13:38:55;7.50;58.50
14850;DHT22;7517;48.400;11.770;2023-01-19T13:41:27;7.60;58.50
14850;DHT22;7517;48.400;11.770;2023-01-19T13:44:00;7.60;58.20
14850;DHT22;7517;48.400;11.770;2023-01-19T13:46:34;7.60;58.00
14850;DHT22;7517;48.400;11.770;2023-01-19T13:49:19;7.60;57.80
14850;DHT22;7517;48.400;11.770;2023-01-19T13:52:04;7.70;57.60
14850;DHT22;7517;48.400;11.770;2023-01-19T13:54:34;7.70;57.50
14850;DHT22;7517;48.400;11.770;2023-01-19T13:57:27;7.70;57.60
14850;DHT22;7517;48.400;11.770;2023-01-19T14:00:10;7.70;57.20
14850;DHT22;7517;48.400;11.770;2023-01-19T14:02:58;7.70;57.10
14850;DHT22;7517;48.400;11.770;2023-01-19T14:05:41;7.70;57.20
14850;DHT22;7517;48.400;11.770;2023-01-19T14:08:18;7.70;57.40
14850;DHT22;7517;48.400;11.770;2023-01-19T14:13:37;7.70;57.00
14850;DHT22;7517;48.400;11.770;2023-01-19T14:16:14;7.70;57.10
14850;DHT22;7517;48.400;11.770;2023-01-19T14:18:53;7.70;57.10
14850;DHT22;7517;48.400;11.770;2023-01-19T14:21:37;7.70;56.90
14850;DHT22;7517;48.400;11.770;2023-01-19T14:24:23;7.70;56.50
14850;DHT22;7517;48.400;11.770;2023-01-19T14:27:06;7.70;56.70
14850;DHT22;7517;48.400;11.770;2023-01-19T14:29:36;7.70;56.50
14850;DHT22;7517;48.400;11.770;2023-01-19T14:32:13;7.70;56.70
14850;DHT22;7517;48.400;11.770;2023-01-19T14:34:47;7.70;56.80
14850;DHT22;7517;48.400;11.770;2023-01-19T14:37:22;7.70;56.90
14850;DHT22;7517;48.400;11.770;2023-01-19T14:40:14;7.70;56.90
14850;DHT22;7517;48.400;11.770;2023-01-19T14:42:48;7.70;57.00
14850;DHT22;7517;48.400;11.770;2023-01-19T14:45:27;7.70;56.90
14850;DHT22;7517;48.400;11.770;2023-01-19T14:47:59;7.70;56.70
14850;DHT22;7517;48.400;11.770;2023-01-19T14:50:33;7.70;56.70
14850;DHT22;7517;48.400;11.770;2023-01-19T14:53:06;7.70;56.60
14850;DHT22;7517;48.400;11.770;2023-01-19T14:55:45;7.70;56.40
14850;DHT22;7517;48.400;11.770;2023-01-19T14:58:18;7.70;56.40
14850;DHT22;7517;48.400;11.770;2023-01-19T15:00:49;7.70;56.50
14850;DHT22;7517;48.400;11.770;2023-01-19T15:03:26;7.70;56.60
14850;DHT22;7517;48.400;11.770;2023-01-19T15:06:00;7.70;56.70
14850;DHT22;7517;48.400;11.770;2023-01-19T15:08:30;7.70;56.60
14850;DHT22;7517;48.400;11.770;2023-01-19T15:11:07;7.70;56.50
14850;DHT22;7517;48.400;11.770;2023-01-19T15:13:49;7.70;56.40
14850;DHT22;7517;48.400;11.770;2023-01-19T15:16:32;7.70;56.50
14850;DHT22;7517;48.400;11.770;2023-01-19T15:19:18;7.70;56.60
14850;DHT22;7517;48.400;11.770;2023-01-19T15:21:51;7.70;56.60
14850;DHT22;7517;48.400;11.770;2023-01-19T15:24:26;7.70;56.60
14850;DHT22;7517;48.400;11.770;2023-01-19T15:26:59;7.70;56.50
14850;DHT22;7517;48.400;11.770;2023-01-19T15:29:27;7.70;56.50
14850;DHT22;7517;48.400;11.770;2023-01-19T15:31:56;7.70;56.50
14850;DHT22;7517;48.400;11.770;2023-01-19T15:34:30;7.70;56.60
14850;DHT22;7517;48.400;11.770;2023-01-19T15:36:59;7.60;56.50
14850;DHT22;7517;48.400;11.770;2023-01-19T15:39:31;7.60;56.50
14850;DHT22;7517;48.400;11.770;2023-01-19T15:41:59;7.60;56.50
14850;DHT22;7517;48.400;11.770;2023-01-19T15:44:34;7.60;56.60
14850;DHT22;7517;48.400;11.770;2023-01-19T15:47:01;7.60;56.80
14850;DHT22;7517;48.400;11.770;2023-01-19T15:49:36;7.60;56.60
14850;DHT22;7517;48.400;11.770;2023-01-19T15:52:11;7.60;56.60
14850;DHT22;7517;48.400;11.770;2023-01-19T15:54:38;7.60;56.60
14850;DHT22;7517;48.400;11.770;2023-01-19T15:57:05;7.50;56.70
14850;DHT22;7517;48.400;11.770;2023-01-19T15:59:32;7.50;56.80
14850;DHT22;7517;48.400;11.770;2023-01-19T16:02:03;7.50;56.60
14850;DHT22;7517;48.400;11.770;2023-01-19T16:04:33;7.50;56.70
14850;DHT22;7517;48.400;11.770;2023-01-19T16:07:00;7.50;56.60
14850;DHT22;7517;48.400;11.770;2023-01-19T16:09:29;7.40;56.60
14850;DHT22;7517;48.400;11.770;2023-01-19T16:11:59;7.40;56.60
14850;DHT22;7517;48.400;11.770;2023-01-19T16:14:34;7.40;56.60
14850;DHT22;7517;48.400;11.770;2023-01-19T16:17:02;7.40;56.60
14850;DHT22;7517;48.400;11.770;2023-01-19T16:19:30;7.30;56.50
14850;DHT22;7517;48.400;11.770;2023-01-19T16:21:57;7.30;56.40
14850;DHT22;7517;48.400;11.770;2023-01-19T16:24:24;7.30;56.50
14850;DHT22;7517;48.400;11.770;2023-01-19T16:26:56;7.30;56.60
14850;DHT22;7517;48.400;11.770;2023-01-19T16:29:25;7.30;56.70
14850;DHT22;7517;48.400;11.770;2023-01-19T16:31:53;7.30;56.80
14850;DHT22;7517;48.400;11.770;2023-01-19T16:34:25;7.20;56.80
14850;DHT22;7517;48.400;11.770;2023-01-19T16:36:52;7.20;56.80
14850;DHT22;7517;48.400;11.770;2023-01-19T16:39:21;7.20;56.80
14850;DHT22;7517;48.400;11.770;2023-01-19T16:41:50;7.20;56.70
14850;DHT22;7517;48.400;11.770;2023-01-19T16:44:23;7.20;56.80